Demetrios — A8UI5 — position and weather

sailwx.info

Track history (hours):
 
Tides and Currents Weather Stations Pressure Air Temp Water Temp Dewpoint Dewpoint Depression Visibility Wind Speed Wind Dir Waves Ship Positions

Demetrios

Last reported at 2017-Dec-11 04:42 UTC. Time now 2017-Dec-14 13:15 UTC.
Position S 38°57' E 147°18'.

Length 274 m; draft 9.5 m.

Type: Tanker. MMSI: 636014500.

Date/timePositionNaut miles runAvg speedWind from/ knotsBaromVisibWave heightAir tempDewpointWater temp
2017-Dec-11 04:42S 38°57' E 147°18'613.7
2017-Dec-11 04:18S 38°55' E 147°25'413.7
2017-Dec-11 03:59S 38°54' E 147°30'713.7
2017-Dec-11 03:30S 38°52' E 147°38'713.3
2017-Dec-11 02:56S 38°50' E 147°47'713.0
2017-Dec-11 02:25S 38°47' E 147°56'612.4
2017-Dec-11 01:55S 38°45' E 148°03'812.2
2017-Dec-11 01:18S 38°42' E 148°12'911.6
2017-Dec-11 00:33S 38°39' E 148°22'211.7
2017-Dec-11 00:25S 38°38' E 148°24'512.0
2017-Dec-10 23:59S 38°36' E 148°30'612.0
2017-Dec-10 23:30S 38°33' E 148°36'611.9
2017-Dec-10 22:59S 38°30' E 148°43'2112.1
2017-Dec-10 21:13S 38°22' E 149°08'8012.8
2017-Dec-10 14:55S 37°47' E 150°41'33013.1
2017-Dec-09 13:48S 32°45' E 153°23'613.1
2017-Dec-09 13:22S 32°40' E 153°26'513.5
2017-Dec-09 13:00S 32°35' E 153°28'713.7
2017-Dec-09 12:30S 32°29' E 153°31'713.8
2017-Dec-09 12:00S 32°23' E 153°34'18212.4
2017-Dec-08 21:20S 29°28' E 154°33'6312.3
2017-Dec-08 16:13S 28°26' E 154°19'314.2
2017-Dec-08 15:59S 28°23' E 154°18'714.2
2017-Dec-08 15:30S 28°16' E 154°17'713.9
2017-Dec-08 15:00S 28°10' E 154°15'713.8
2017-Dec-08 14:29S 28°02' E 154°14'713.6
2017-Dec-08 14:00S 27°56' E 154°12'713.8
2017-Dec-08 13:30S 27°49' E 154°11'713.7
2017-Dec-08 13:01S 27°43' E 154°09'713.9
2017-Dec-08 12:30S 27°36' E 154°08'714.2
2017-Dec-08 12:00S 27°29' E 154°06'1714.4
2017-Dec-08 10:51S 27°12' E 154°03'514.3
2017-Dec-08 10:30S 27°08' E 154°02'713.6
2017-Dec-08 10:00S 27°01' E 154°01'612.8
2017-Dec-08 09:30S 26°58' E 153°55'713.2
2017-Dec-08 09:00S 26°55' E 153°48'713.2
2017-Dec-08 08:31S 26°53' E 153°41'713.2
2017-Dec-08 08:01S 26°51' E 153°34'713.1
2017-Dec-08 07:31S 26°48' E 153°28'713.5
2017-Dec-08 07:00S 26°45' E 153°21'713.4
2017-Dec-08 06:29S 26°42' E 153°14'6 7.8
2017-Dec-08 05:43S 26°48' E 153°11'211.3
2017-Dec-08 05:30S 26°49' E 153°09'713.2
2017-Dec-08 05:00S 26°56' E 153°12'714.4
2017-Dec-08 04:30S 27°02' E 153°15'612.4
2017-Dec-08 04:00S 27°07' E 153°20'713.2
2017-Dec-08 03:30S 27°13' E 153°20'713.1
2017-Dec-08 03:00S 27°17' E 153°14'611.8
2017-Dec-08 02:30S 27°22' E 153°10'1 0.2
2017-Dec-07 20:52S 27°23' E 153°10'0 0.0
2017-Dec-07 19:55S 27°23' E 153°10'0 0.0
2017-Dec-07 19:28S 27°23' E 153°10'0 0.0
2017-Dec-07 18:58S 27°23' E 153°10'0 0.0
2017-Dec-07 18:28S 27°23' E 153°10'0 0.0
2017-Dec-07 17:52S 27°23' E 153°10'0 0.0
2017-Dec-07 17:25S 27°23' E 153°10'0 0.0
2017-Dec-07 16:58S 27°23' E 153°10'0 0.0
2017-Dec-07 16:28S 27°23' E 153°10'0 0.0
2017-Dec-07 15:55S 27°23' E 153°10'0 0.0
2017-Dec-07 15:28S 27°23' E 153°10'0 0.0
2017-Dec-07 14:58S 27°23' E 153°10'0 0.0
2017-Dec-07 14:28S 27°23' E 153°10'0 0.0
2017-Dec-07 13:55S 27°23' E 153°10'0 0.0
2017-Dec-07 13:28S 27°23' E 153°10'0 0.0
2017-Dec-07 12:58S 27°23' E 153°10'0 0.0
2017-Dec-07 12:28S 27°23' E 153°10'0 0.0
2017-Dec-07 11:58S 27°23' E 153°10'0 0.0
2017-Dec-07 11:28S 27°23' E 153°10'0 0.0
2017-Dec-07 10:58S 27°23' E 153°10'0 0.0
2017-Dec-07 10:28S 27°23' E 153°10'0 0.0
2017-Dec-07 09:58S 27°23' E 153°10'0 0.0
2017-Dec-07 09:30S 27°23' E 153°10'0 0.0
2017-Dec-07 08:58S 27°23' E 153°10'0 0.0
2017-Dec-07 08:28S 27°23' E 153°10'0 0.0
2017-Dec-07 07:58S 27°23' E 153°10'0 0.0
2017-Dec-07 07:28S 27°23' E 153°10'0 0.0
2017-Dec-07 06:58S 27°23' E 153°10'0 0.0
2017-Dec-07 06:28S 27°23' E 153°10'0 0.0
2017-Dec-07 05:46S 27°23' E 153°10'0 0.0
2017-Dec-07 05:28S 27°23' E 153°10'0 0.0
2017-Dec-07 04:58S 27°23' E 153°10'0 0.0
2017-Dec-07 04:19S 27°23' E 153°10'0 0.0
2017-Dec-07 03:58S 27°23' E 153°10'0 0.0
2017-Dec-07 03:28S 27°23' E 153°10'0 0.0
2017-Dec-07 02:58S 27°23' E 153°10'0 0.0
2017-Dec-07 02:28S 27°23' E 153°10'0 0.0
2017-Dec-07 01:58S 27°23' E 153°10'0 0.0
2017-Dec-07 01:28S 27°23' E 153°10'0 0.0
2017-Dec-07 00:52S 27°23' E 153°10'0 0.0
2017-Dec-06 22:04S 27°23' E 153°10'0 0.0
2017-Dec-06 21:34S 27°23' E 153°10'0 0.0
2017-Dec-06 21:28S 27°23' E 153°10'0 0.0
2017-Dec-06 20:58S 27°23' E 153°10'  
2017-Dec-04 10:25S 27°23' E 153°10'0 0.0
2017-Dec-04 09:58S 27°23' E 153°10'0 0.0
2017-Dec-04 09:28S 27°23' E 153°10'0 0.0
2017-Dec-04 08:58S 27°23' E 153°10'0 0.0
2017-Dec-04 08:28S 27°23' E 153°10'0 0.0
2017-Dec-04 07:58S 27°23' E 153°10'0 0.0
2017-Dec-04 07:22S 27°23' E 153°10'0 0.0
2017-Dec-04 06:58S 27°23' E 153°10'0 0.0
2017-Dec-04 06:28S 27°23' E 153°10'0 0.0
2017-Dec-04 05:49S 27°23' E 153°10'0 0.0
2017-Dec-04 05:19S 27°23' E 153°10'0 0.0
2017-Dec-04 04:58S 27°23' E 153°10'0 0.0
2017-Dec-04 04:22S 27°23' E 153°10'0 0.0
2017-Dec-04 03:58S 27°23' E 153°10'0 0.0
2017-Dec-04 03:28S 27°23' E 153°10'0 0.0
2017-Dec-04 02:46S 27°23' E 153°10'0 0.0
2017-Dec-04 02:25S 27°23' E 153°10'0 0.0
2017-Dec-04 02:00S 27°23' E 153°10'0 0.8
2017-Dec-04 01:30S 27°23' E 153°10'3 5.9
2017-Dec-04 01:00S 27°20' E 153°12'5 9.7
2017-Dec-04 00:30S 27°17' E 153°15'611.6
2017-Dec-04 00:00S 27°13' E 153°20'612.4
2017-Dec-03 23:30S 27°07' E 153°20'611.4
2017-Dec-03 23:00S 27°03' E 153°16'510.4
2017-Dec-03 22:30S 26°58' E 153°13'4 8.1
2017-Dec-03 22:00S 26°54' E 153°11'5 9.3
2017-Dec-03 21:30S 26°50' E 153°09'4 7.6
2017-Dec-03 21:00S 26°48' E 153°12'5 9.7
2017-Dec-03 20:28S 26°43' E 153°11'2 3.2
2017-Dec-03 20:00S 26°43' E 153°13'2 5.0
2017-Dec-03 19:30S 26°44' E 153°16'3 5.1
2017-Dec-03 19:00S 26°44' E 153°18'4 8.6
2017-Dec-03 18:30S 26°46' E 153°23'713.5
2017-Dec-03 18:00S 26°49' E 153°30'813.5
2017-Dec-03 17:23S 26°52' E 153°39'712.9
2017-Dec-03 16:50S 26°55' E 153°46'512.3
2017-Dec-03 16:26S 26°57' E 153°51'512.0
2017-Dec-03 16:00S 26°59' E 153°56'5311.1
2017-Dec-03 11:14S 27°50' E 154°11'1711.8
2017-Dec-03 09:48S 28°06' E 154°16'4213.3
2017-Dec-03 06:41S 28°48' E 154°23'2314.2
2017-Dec-03 05:03S 29°10' E 154°29'214.0
2017-Dec-03 04:53S 29°12' E 154°30'  
Track history (hours):
 
Tides and Currents Weather Stations Pressure Air Temp Water Temp Dewpoint Dewpoint Depression Visibility Wind Speed Wind Dir Waves Ship Positions

Demetrios

Last reported at 2017-Dec-11 04:42 UTC. Time now 2017-Dec-14 13:15 UTC.
Position S 38°57' E 147°18'.

Length 274 m; draft 9.5 m.

Type: Tanker. MMSI: 636014500.

Date/timePositionNaut miles runAvg speedWind from/ knotsBaromVisibWave heightAir tempDewpointWater temp
2017-Dec-11 04:42S 38°57' E 147°18'613.7
2017-Dec-11 04:18S 38°55' E 147°25'413.7
2017-Dec-11 03:59S 38°54' E 147°30'713.7
2017-Dec-11 03:30S 38°52' E 147°38'713.3
2017-Dec-11 02:56S 38°50' E 147°47'713.0
2017-Dec-11 02:25S 38°47' E 147°56'612.4
2017-Dec-11 01:55S 38°45' E 148°03'812.2
2017-Dec-11 01:18S 38°42' E 148°12'911.6
2017-Dec-11 00:33S 38°39' E 148°22'211.7
2017-Dec-11 00:25S 38°38' E 148°24'512.0
2017-Dec-10 23:59S 38°36' E 148°30'612.0
2017-Dec-10 23:30S 38°33' E 148°36'611.9
2017-Dec-10 22:59S 38°30' E 148°43'2112.1
2017-Dec-10 21:13S 38°22' E 149°08'8012.8
2017-Dec-10 14:55S 37°47' E 150°41'33013.1
2017-Dec-09 13:48S 32°45' E 153°23'613.1
2017-Dec-09 13:22S 32°40' E 153°26'513.5
2017-Dec-09 13:00S 32°35' E 153°28'713.7
2017-Dec-09 12:30S 32°29' E 153°31'713.8
2017-Dec-09 12:00S 32°23' E 153°34'18212.4
2017-Dec-08 21:20S 29°28' E 154°33'6312.3
2017-Dec-08 16:13S 28°26' E 154°19'314.2
2017-Dec-08 15:59S 28°23' E 154°18'714.2
2017-Dec-08 15:30S 28°16' E 154°17'713.9
2017-Dec-08 15:00S 28°10' E 154°15'713.8
2017-Dec-08 14:29S 28°02' E 154°14'713.6
2017-Dec-08 14:00S 27°56' E 154°12'713.8
2017-Dec-08 13:30S 27°49' E 154°11'713.7
2017-Dec-08 13:01S 27°43' E 154°09'713.9
2017-Dec-08 12:30S 27°36' E 154°08'714.2
2017-Dec-08 12:00S 27°29' E 154°06'1714.4
2017-Dec-08 10:51S 27°12' E 154°03'514.3
2017-Dec-08 10:30S 27°08' E 154°02'713.6
2017-Dec-08 10:00S 27°01' E 154°01'612.8
2017-Dec-08 09:30S 26°58' E 153°55'713.2
2017-Dec-08 09:00S 26°55' E 153°48'713.2
2017-Dec-08 08:31S 26°53' E 153°41'713.2
2017-Dec-08 08:01S 26°51' E 153°34'713.1
2017-Dec-08 07:31S 26°48' E 153°28'713.5
2017-Dec-08 07:00S 26°45' E 153°21'713.4
2017-Dec-08 06:29S 26°42' E 153°14'6 7.8
2017-Dec-08 05:43S 26°48' E 153°11'211.3
2017-Dec-08 05:30S 26°49' E 153°09'713.2
2017-Dec-08 05:00S 26°56' E 153°12'714.4
2017-Dec-08 04:30S 27°02' E 153°15'612.4
2017-Dec-08 04:00S 27°07' E 153°20'713.2
2017-Dec-08 03:30S 27°13' E 153°20'713.1
2017-Dec-08 03:00S 27°17' E 153°14'611.8
2017-Dec-08 02:30S 27°22' E 153°10'1 0.2
2017-Dec-07 20:52S 27°23' E 153°10'0 0.0
2017-Dec-07 19:55S 27°23' E 153°10'0 0.0
2017-Dec-07 19:28S 27°23' E 153°10'0 0.0
2017-Dec-07 18:58S 27°23' E 153°10'0 0.0
2017-Dec-07 18:28S 27°23' E 153°10'0 0.0
2017-Dec-07 17:52S 27°23' E 153°10'0 0.0
2017-Dec-07 17:25S 27°23' E 153°10'0 0.0
2017-Dec-07 16:58S 27°23' E 153°10'0 0.0
2017-Dec-07 16:28S 27°23' E 153°10'0 0.0
2017-Dec-07 15:55S 27°23' E 153°10'0 0.0
2017-Dec-07 15:28S 27°23' E 153°10'0 0.0
2017-Dec-07 14:58S 27°23' E 153°10'0 0.0
2017-Dec-07 14:28S 27°23' E 153°10'0 0.0
2017-Dec-07 13:55S 27°23' E 153°10'0 0.0
2017-Dec-07 13:28S 27°23' E 153°10'0 0.0
2017-Dec-07 12:58S 27°23' E 153°10'0 0.0
2017-Dec-07 12:28S 27°23' E 153°10'0 0.0
2017-Dec-07 11:58S 27°23' E 153°10'0 0.0
2017-Dec-07 11:28S 27°23' E 153°10'0 0.0
2017-Dec-07 10:58S 27°23' E 153°10'0 0.0
2017-Dec-07 10:28S 27°23' E 153°10'0 0.0
2017-Dec-07 09:58S 27°23' E 153°10'0 0.0
2017-Dec-07 09:30S 27°23' E 153°10'0 0.0
2017-Dec-07 08:58S 27°23' E 153°10'0 0.0
2017-Dec-07 08:28S 27°23' E 153°10'0 0.0
2017-Dec-07 07:58S 27°23' E 153°10'0 0.0
2017-Dec-07 07:28S 27°23' E 153°10'0 0.0
2017-Dec-07 06:58S 27°23' E 153°10'0 0.0
2017-Dec-07 06:28S 27°23' E 153°10'0 0.0
2017-Dec-07 05:46S 27°23' E 153°10'0 0.0
2017-Dec-07 05:28S 27°23' E 153°10'0 0.0
2017-Dec-07 04:58S 27°23' E 153°10'0 0.0
2017-Dec-07 04:19S 27°23' E 153°10'0 0.0
2017-Dec-07 03:58S 27°23' E 153°10'0 0.0
2017-Dec-07 03:28S 27°23' E 153°10'0 0.0
2017-Dec-07 02:58S 27°23' E 153°10'0 0.0
2017-Dec-07 02:28S 27°23' E 153°10'0 0.0
2017-Dec-07 01:58S 27°23' E 153°10'0 0.0
2017-Dec-07 01:28S 27°23' E 153°10'0 0.0
2017-Dec-07 00:52S 27°23' E 153°10'0 0.0
2017-Dec-06 22:04S 27°23' E 153°10'0 0.0
2017-Dec-06 21:34S 27°23' E 153°10'0 0.0
2017-Dec-06 21:28S 27°23' E 153°10'0 0.0
2017-Dec-06 20:58S 27°23' E 153°10'  
2017-Dec-04 10:25S 27°23' E 153°10'0 0.0
2017-Dec-04 09:58S 27°23' E 153°10'0 0.0
2017-Dec-04 09:28S 27°23' E 153°10'0 0.0
2017-Dec-04 08:58S 27°23' E 153°10'0 0.0
2017-Dec-04 08:28S 27°23' E 153°10'0 0.0
2017-Dec-04 07:58S 27°23' E 153°10'0 0.0
2017-Dec-04 07:22S 27°23' E 153°10'0 0.0
2017-Dec-04 06:58S 27°23' E 153°10'0 0.0
2017-Dec-04 06:28S 27°23' E 153°10'0 0.0
2017-Dec-04 05:49S 27°23' E 153°10'0 0.0
2017-Dec-04 05:19S 27°23' E 153°10'0 0.0
2017-Dec-04 04:58S 27°23' E 153°10'0 0.0
2017-Dec-04 04:22S 27°23' E 153°10'0 0.0
2017-Dec-04 03:58S 27°23' E 153°10'0 0.0
2017-Dec-04 03:28S 27°23' E 153°10'0 0.0
2017-Dec-04 02:46S 27°23' E 153°10'0 0.0
2017-Dec-04 02:25S 27°23' E 153°10'0 0.0
2017-Dec-04 02:00S 27°23' E 153°10'0 0.8
2017-Dec-04 01:30S 27°23' E 153°10'3 5.9
2017-Dec-04 01:00S 27°20' E 153°12'5 9.7
2017-Dec-04 00:30S 27°17' E 153°15'611.6
2017-Dec-04 00:00S 27°13' E 153°20'612.4
2017-Dec-03 23:30S 27°07' E 153°20'611.4
2017-Dec-03 23:00S 27°03' E 153°16'510.4
2017-Dec-03 22:30S 26°58' E 153°13'4 8.1
2017-Dec-03 22:00S 26°54' E 153°11'5 9.3
2017-Dec-03 21:30S 26°50' E 153°09'4 7.6
2017-Dec-03 21:00S 26°48' E 153°12'5 9.7
2017-Dec-03 20:28S 26°43' E 153°11'2 3.2
2017-Dec-03 20:00S 26°43' E 153°13'2 5.0
2017-Dec-03 19:30S 26°44' E 153°16'3 5.1
2017-Dec-03 19:00S 26°44' E 153°18'4 8.6
2017-Dec-03 18:30S 26°46' E 153°23'713.5
2017-Dec-03 18:00S 26°49' E 153°30'813.5
2017-Dec-03 17:23S 26°52' E 153°39'712.9
2017-Dec-03 16:50S 26°55' E 153°46'512.3
2017-Dec-03 16:26S 26°57' E 153°51'512.0
2017-Dec-03 16:00S 26°59' E 153°56'5311.1
2017-Dec-03 11:14S 27°50' E 154°11'1711.8
2017-Dec-03 09:48S 28°06' E 154°16'4213.3
2017-Dec-03 06:41S 28°48' E 154°23'2314.2
2017-Dec-03 05:03S 29°10' E 154°29'214.0
2017-Dec-03 04:53S 29°12' E 154°30'  

Dump ship's entire track history